Wetterdaten: Woche 05.12.11 - 11.12.11 (KW49)
Datum Zeit Temp. A. Feuchte A. Luftdruck Regen Wind Richtung Taupunkt Windchill Windben
05.12.2011 00:00 6,3 C 85 % 1000,8 hPa 0,0 l/m 0,5 km/h N-NO 4,0 C 6,3 C 3,2 km/h
05.12.2011 01:00 5,7 C 85 % 999,8 hPa 0,0 l/m 0,0 km/h N 3,4 C 5,7 C 1,6 km/h
05.12.2011 02:00 4,9 C 85 % 997,9 hPa 0,0 l/m 0,1 km/h N 2,6 C 4,9 C 2,8 km/h
05.12.2011 03:00 3,9 C 85 % 996,4 hPa 0,0 l/m 0,0 km/h N 1,6 C 3,9 C 0,4 km/h
05.12.2011 04:00 2,9 C 85 % 994,7 hPa 0,0 l/m 0,0 km/h N 0,6 C 2,9 C 0,4 km/h
05.12.2011 05:00 2,2 C 85 % 994,3 hPa 0,0 l/m 0,3 km/h NW -0,1 C 2,2 C 3,2 km/h
05.12.2011 06:00 3,1 C 83 % 994,6 hPa 0,0 l/m 0,1 km/h N 0,5 C 3,1 C 0,8 km/h
05.12.2011 07:00 4,6 C 82 % 996,5 hPa 0,0 l/m 5,1 km/h NW 1,8 C 3,5 C 16,9 km/h
05.12.2011 08:00 9,7 C 76 % 998,5 hPa 0,0 l/m 14,7 km/h W-NW 5,6 C 5,0 C 35,4 km/h
05.12.2011 09:00 9,7 C 69 % 999,5 hPa 0,0 l/m 17,1 km/h W-NW 4,2 C 3,9 C 39,4 km/h
05.12.2011 10:00 9,8 C 65 % 1000,5 hPa 0,0 l/m 19,3 km/h NW 3,4 C 3,2 C 43,4 km/h
05.12.2011 11:00 9,5 C 64 % 1000,7 hPa 0,0 l/m 21,3 km/h W 3,1 C 2,2 C 48,7 km/h
05.12.2011 12:00 9,4 C 64 % 1001,5 hPa 0,0 l/m 17,1 km/h W 2,8 C 3,6 C 39,4 km/h
05.12.2011 13:00 9,1 C 63 % 1002,2 hPa 0,0 l/m 13,8 km/h NW 2,4 C 4,6 C 33,4 km/h
05.12.2011 14:00 8,3 C 60 % 1003,7 hPa 0,0 l/m 11,4 km/h NW 0,9 C 4,9 C 33,8 km/h
05.12.2011 15:00 7,1 C 64 % 1005,0 hPa 0,0 l/m 13,6 km/h W-NW 0,7 C 2,3 C 33,8 km/h
05.12.2011 16:00 6,1 C 66 % 1006,2 hPa 0,0 l/m 13,5 km/h W 0,3 C 1,2 C 34,2 km/h
05.12.2011 17:00 5,4 C 73 % 1008,1 hPa 0,0 l/m 9,0 km/h W-NW 0,8 C 3,0 C 24,5 km/h
05.12.2011 18:00 4,3 C 75 % 1009,2 hPa 0,0 l/m 6,1 km/h W-NW 0,2 C 3,7 C 20,1 km/h
05.12.2011 19:00 4,1 C 74 % 1009,5 hPa 0,0 l/m 7,6 km/h NW -0,1 C 3,0 C 23,3 km/h
05.12.2011 20:00 3,9 C 74 % 1010,2 hPa 0,0 l/m 7,1 km/h W-NW -0,2 C 3,2 C 23,7 km/h
05.12.2011 21:00 3,8 C 75 % 1010,3 hPa 0,0 l/m 5,6 km/h W-NW -0,3 C 3,1 C 15,7 km/h
05.12.2011 22:00 3,7 C 76 % 1010,3 hPa 0,0 l/m 4,7 km/h W-NW -0,2 C 3,6 C 18,1 km/h
05.12.2011 23:00 3,8 C 75 % 1010,9 hPa 0,0 l/m 4,5 km/h NW -0,3 C 3,8 C 14,5 km/h
06.12.2011 00:00 3,8 C 73 % 1011,2 hPa 0,0 l/m 2,9 km/h W-SW -0,7 C 3,8 C 13,3 km/h
06.12.2011 01:00 4,3 C 68 % 1011,1 hPa 0,0 l/m 4,2 km/h W -1,1 C 4,3 C 18,5 km/h
06.12.2011 02:00 4,7 C 65 % 1011,0 hPa 0,0 l/m 3,5 km/h W -1,4 C 4,7 C 13,7 km/h
06.12.2011 03:00 5,2 C 62 % 1010,8 hPa 0,0 l/m 3,4 km/h W-SW -1,5 C 5,2 C 18,1 km/h
06.12.2011 04:00 5,9 C 57 % 1010,6 hPa 0,0 l/m 6,5 km/h SW -1,9 C 5,7 C 21,3 km/h
06.12.2011 05:00 6,2 C 55 % 1010,8 hPa 0,0 l/m 4,7 km/h SW -2,2 C 6,2 C 18,9 km/h
06.12.2011 06:00 5,2 C 57 % 1010,7 hPa 0,0 l/m 1,0 km/h S -2,7 C 5,2 C 9,7 km/h
06.12.2011 07:00 3,3 C 64 % 1011,0 hPa 0,0 l/m 0,2 km/h W -2,8 C 3,3 C 3,2 km/h
06.12.2011 08:00 4,2 C 68 % 1011,2 hPa 0,0 l/m 4,1 km/h SW -1,2 C 4,2 C 17,7 km/h
06.12.2011 09:00 5,5 C 66 % 1011,0 hPa 0,0 l/m 2,3 km/h S -0,3 C 5,5 C 10,5 km/h
06.12.2011 10:00 5,9 C 64 % 1011,0 hPa 0,0 l/m 0,3 km/h N -0,4 C 5,9 C 3,2 km/h
06.12.2011 11:00 6,4 C 64 % 1010,6 hPa 0,0 l/m 0,0 km/h N 0,0 C 6,4 C 1,2 km/h
06.12.2011 12:00 7,2 C 60 % 1010,3 hPa 0,0 l/m 2,0 km/h W-SW -0,1 C 7,2 C 8,4 km/h
06.12.2011 13:00 7,2 C 60 % 1010,2 hPa 0,0 l/m 3,8 km/h W-SW -0,1 C 7,2 C 14,9 km/h
06.12.2011 14:00 7,1 C 61 % 1010,3 hPa 0,0 l/m 5,0 km/h W-SW 0,1 C 7,1 C 18,5 km/h
06.12.2011 15:00 6,5 C 67 % 1010,9 hPa 0,0 l/m 5,5 km/h W-NW 0,8 C 6,3 C 17,7 km/h
06.12.2011 16:00 5,1 C 76 % 1011,3 hPa 0,0 l/m 1,8 km/h W 1,2 C 5,1 C 7,6 km/h
06.12.2011 17:00 4,0 C 78 % 1011,3 hPa 0,0 l/m 0,2 km/h N 0,4 C 4,0 C 3,2 km/h
06.12.2011 18:00 3,5 C 80 % 1011,6 hPa 0,0 l/m 0,2 km/h N 0,4 C 3,5 C 4,8 km/h
06.12.2011 19:00 3,1 C 82 % 1011,9 hPa 0,0 l/m 0,8 km/h SW 0,3 C 3,1 C 4,4 km/h
06.12.2011 20:00 3,3 C 82 % 1011,5 hPa 0,0 l/m 0,6 km/h S 0,6 C 3,3 C 5,2 km/h
06.12.2011 21:00 3,3 C 82 % 1011,1 hPa 0,0 l/m 0,5 km/h N 0,5 C 3,3 C 4,8 km/h
06.12.2011 22:00 2,9 C 84 % 1012,2 hPa 1,8 l/m 1,7 km/h SW 0,5 C 2,9 C 9,6 km/h
06.12.2011 23:00 2,7 C 85 % 1012,4 hPa 0,0 l/m 3,8 km/h W-SW 0,4 C 2,6 C 18,1 km/h
07.12.2011 00:00 2,9 C 85 % 1012,9 hPa 0,0 l/m 3,9 km/h W-NW 0,6 C 2,7 C 16,5 km/h
07.12.2011 01:00 3,4 C 81 % 1012,9 hPa 0,0 l/m 9,6 km/h W-NW 0,5 C 0,7 C 26,5 km/h
07.12.2011 02:00 3,4 C 79 % 1013,0 hPa 0,0 l/m 6,5 km/h W-NW 0,1 C 3,1 C 20,5 km/h
07.12.2011 03:00 3,0 C 80 % 1012,8 hPa 0,0 l/m 4,3 km/h W-NW -0,1 C 3,0 C 14,1 km/h
07.12.2011 04:00 2,9 C 80 % 1013,4 hPa 0,0 l/m 1,9 km/h SW -0,2 C 2,9 C 12,1 km/h
07.12.2011 05:00 2,8 C 79 % 1013,5 hPa 0,0 l/m 0,0 km/h N -0,5 C 2,8 C 0,8 km/h
07.12.2011 06:00 2,3 C 82 % 1013,6 hPa 0,0 l/m 0,2 km/h N -0,6 C 2,3 C 2,0 km/h
07.12.2011 07:00 2,1 C 83 % 1013,2 hPa 0,0 l/m 0,1 km/h N -0,5 C 2,1 C 2,0 km/h
07.12.2011 08:00 1,5 C 83 % 1012,9 hPa 0,0 l/m 0,4 km/h N -1,0 C 1,5 C 4,8 km/h
07.12.2011 09:00 2,1 C 84 % 1012,8 hPa 0,0 l/m 1,5 km/h S -0,3 C 2,1 C 8,9 km/h
07.12.2011 10:00 3,3 C 80 % 1012,6 hPa 0,0 l/m 1,3 km/h S-SO 0,1 C 3,3 C 7,7 km/h
07.12.2011 11:00 4,5 C 76 % 1011,2 hPa 0,0 l/m 0,5 km/h SO 0,7 C 4,5 C 4,4 km/h
07.12.2011 12:00 5,8 C 72 % 1009,8 hPa 0,0 l/m 2,2 km/h SO 1,1 C 5,8 C 12,1 km/h
07.12.2011 13:00 6,3 C 71 % 1008,5 hPa 0,0 l/m 0,7 km/h N 1,4 C 6,3 C 6,0 km/h
07.12.2011 14:00 6,2 C 70 % 1007,2 hPa 0,0 l/m 1,2 km/h S 1,1 C 6,2 C 8,9 km/h
07.12.2011 15:00 6,5 C 74 % 1006,2 hPa 0,3 l/m 2,3 km/h S-SO 2,1 C 6,5 C 12,1 km/h
07.12.2011 16:00 5,9 C 78 % 1005,6 hPa 0,3 l/m 0,1 km/h N 2,5 C 5,9 C 2,4 km/h
07.12.2011 17:00 5,6 C 82 % 1005,1 hPa 0,0 l/m 0,9 km/h S 2,7 C 5,6 C 6,0 km/h
07.12.2011 18:00 5,6 C 83 % 1004,9 hPa 0,0 l/m 4,7 km/h SW 2,9 C 4,5 C 18,1 km/h
07.12.2011 19:00 7,0 C 76 % 1005,3 hPa 0,3 l/m 13,7 km/h W-SW 2,9 C 2,1 C 37,8 km/h
07.12.2011 20:00 6,3 C 76 % 1007,1 hPa 1,6 l/m 7,3 km/h W-NW 2,4 C 5,1 C 22,5 km/h
07.12.2011 21:00 4,8 C 84 % 1007,8 hPa 0,3 l/m 3,3 km/h S-SW 2,3 C 4,7 C 14,1 km/h
07.12.2011 22:00 5,2 C 82 % 1008,5 hPa 1,8 l/m 8,2 km/h SW 2,5 C 3,7 C 25,0 km/h
07.12.2011 23:00 4,0 C 84 % 1009,2 hPa 0,3 l/m 3,3 km/h SW 1,5 C 4,0 C 12,5 km/h
08.12.2011 00:00 4,3 C 82 % 1010,1 hPa 0,0 l/m 4,9 km/h SW 1,4 C 4,3 C 21,7 km/h
08.12.2011 01:00 4,6 C 77 % 1011,0 hPa 0,0 l/m 7,3 km/h SW 0,8 C 3,6 C 23,3 km/h
08.12.2011 02:00 4,6 C 76 % 1012,0 hPa 0,0 l/m 8,6 km/h W 0,6 C 2,7 C 24,9 km/h
08.12.2011 03:00 4,6 C 74 % 1012,3 hPa 0,0 l/m 13,2 km/h W 0,4 C -0,4 C 35,0 km/h
08.12.2011 04:00 4,4 C 74 % 1012,6 hPa 0,0 l/m 15,5 km/h S 0,2 C -1,9 C 37,8 km/h
08.12.2011 05:00 4,3 C 75 % 1013,2 hPa 0,0 l/m 16,4 km/h W-NW 0,1 C -2,5 C 41,0 km/h
08.12.2011 06:00 4,3 C 73 % 1013,9 hPa 0,0 l/m 16,9 km/h W -0,0 C -2,7 C 40,2 km/h
08.12.2011 07:00 4,9 C 67 % 1014,6 hPa 0,0 l/m 17,5 km/h W-NW -0,8 C -2,3 C 43,4 km/h
08.12.2011 08:00 5,3 C 64 % 1016,0 hPa 0,0 l/m 15,4 km/h NW -0,8 C -0,7 C 41,0 km/h
08.12.2011 09:00 5,7 C 63 % 1017,0 hPa 0,0 l/m 18,3 km/h NW -0,8 C -1,6 C 44,7 km/h
08.12.2011 10:00 6,2 C 62 % 1018,3 hPa 0,0 l/m 19,7 km/h W-NW -0,6 C -1,4 C 45,9 km/h
08.12.2011 11:00 6,6 C 60 % 1019,0 hPa 0,0 l/m 20,4 km/h NW -0,5 C -1,2 C 45,1 km/h
08.12.2011 12:00 6,7 C 61 % 1019,6 hPa 0,0 l/m 18,9 km/h N-NW -0,4 C -0,5 C 49,5 km/h
08.12.2011 13:00 6,7 C 60 % 1020,7 hPa 0,0 l/m 18,9 km/h W-NW -0,6 C -0,6 C 43,9 km/h
08.12.2011 14:00 6,6 C 58 % 1021,5 hPa 0,0 l/m 16,6 km/h W-NW -1,1 C 0,3 C 39,8 km/h
08.12.2011 15:00 6,4 C 57 % 1022,5 hPa 0,0 l/m 15,6 km/h W-NW -1,6 C 0,5 C 37,0 km/h
08.12.2011 16:00 5,8 C 56 % 1023,2 hPa 0,0 l/m 11,5 km/h SW -2,3 C 2,0 C 29,3 km/h
08.12.2011 17:00 5,2 C 58 % 1023,8 hPa 0,0 l/m 7,3 km/h NW -2,4 C 4,2 C 22,1 km/h
08.12.2011 18:00 4,4 C 61 % 1023,5 hPa 0,0 l/m 4,3 km/h N-NW -2,5 C 4,4 C 12,9 km/h
08.12.2011 19:00 3,6 C 64 % 1023,9 hPa 0,0 l/m 0,9 km/h N -2,6 C 3,6 C 6,4 km/h
08.12.2011 20:00 1,7 C 67 % 1023,8 hPa 0,0 l/m 0,0 km/h N -3,7 C 1,7 C 1,2 km/h
08.12.2011 21:00 -0,3 C 74 % 1023,6 hPa 0,0 l/m 0,0 km/h N -4,5 C -0,3 C 0,8 km/h
08.12.2011 22:00 -1,3 C 78 % 1022,8 hPa 0,0 l/m 0,0 km/h N -4,7 C -1,3 C 1,2 km/h
08.12.2011 23:00 -1,8 C 81 % 1022,1 hPa 0,0 l/m 0,0 km/h N -4,6 C -1,8 C 0,8 km/h
09.12.2011 00:00 -1,7 C 83 % 1021,3 hPa 0,0 l/m 0,0 km/h N -4,2 C -1,7 C 1,2 km/h
09.12.2011 01:00 -1,6 C 84 % 1020,2 hPa 0,0 l/m 0,0 km/h S -3,9 C -1,6 C 1,2 km/h
09.12.2011 02:00 0,6 C 81 % 1018,8 hPa 0,0 l/m 2,0 km/h S -2,3 C 0,6 C 11,3 km/h
09.12.2011 03:00 2,7 C 66 % 1017,8 hPa 0,0 l/m 2,0 km/h S -3,0 C 2,7 C 8,1 km/h
09.12.2011 04:00 3,1 C 64 % 1017,0 hPa 0,0 l/m 0,5 km/h N -3,0 C 3,1 C 4,4 km/h
09.12.2011 05:00 2,3 C 71 % 1016,6 hPa 0,0 l/m 0,3 km/h N -2,4 C 2,3 C 3,6 km/h
09.12.2011 06:00 1,4 C 75 % 1016,3 hPa 0,0 l/m 0,0 km/h N -2,5 C 1,4 C 0,0 km/h
09.12.2011 07:00 0,6 C 78 % 1016,3 hPa 0,0 l/m 0,0 km/h N -2,9 C 0,6 C 0,0 km/h
09.12.2011 08:00 -0,2 C 81 % 1016,3 hPa 0,0 l/m 0,0 km/h N -3,1 C -0,2 C 0,4 km/h
09.12.2011 09:00 0,7 C 84 % 1016,0 hPa 0,0 l/m 0,1 km/h N -1,8 C 0,7 C 1,2 km/h
09.12.2011 10:00 1,9 C 83 % 1015,7 hPa 0,0 l/m 0,1 km/h N -0,7 C 1,9 C 1,2 km/h
09.12.2011 11:00 2,6 C 81 % 1015,4 hPa 0,0 l/m 0,0 km/h N -0,3 C 2,6 C 1,6 km/h
09.12.2011 12:00 3,6 C 80 % 1015,0 hPa 0,0 l/m 0,0 km/h N 0,5 C 3,6 C 1,6 km/h
09.12.2011 13:00 4,9 C 73 % 1014,4 hPa 0,0 l/m 0,1 km/h N 0,4 C 4,9 C 2,0 km/h
09.12.2011 14:00 5,6 C 71 % 1013,7 hPa 0,0 l/m 0,4 km/h N 0,8 C 5,6 C 4,0 km/h
09.12.2011 15:00 5,7 C 70 % 1013,5 hPa 0,0 l/m 0,3 km/h N 0,7 C 5,7 C 3,6 km/h
09.12.2011 16:00 5,5 C 71 % 1013,5 hPa 0,0 l/m 0,3 km/h N 0,5 C 5,5 C 4,4 km/h
09.12.2011 17:00 5,1 C 74 % 1013,7 hPa 0,0 l/m 0,2 km/h N 0,8 C 5,1 C 2,8 km/h
09.12.2011 18:00 4,5 C 77 % 1013,4 hPa 0,0 l/m 0,0 km/h N 0,8 C 4,5 C 1,6 km/h
09.12.2011 19:00 4,0 C 80 % 1013,6 hPa 0,0 l/m 0,0 km/h N 0,8 C 4,0 C 1,2 km/h
09.12.2011 20:00 3,8 C 81 % 1013,6 hPa 0,0 l/m 0,2 km/h N 0,8 C 3,8 C 2,4 km/h
09.12.2011 21:00 3,7 C 81 % 1013,4 hPa 0,0 l/m 0,6 km/h O-NO 0,8 C 3,7 C 7,2 km/h
09.12.2011 22:00 4,2 C 78 % 1013,3 hPa 0,0 l/m 0,2 km/h N 0,6 C 4,2 C 2,8 km/h
09.12.2011 23:00 4,2 C 77 % 1013,3 hPa 0,0 l/m 0,0 km/h N 0,4 C 4,2 C 1,2 km/h
10.12.2011 00:00 3,9 C 79 % 1013,1 hPa 0,0 l/m 0,1 km/h N 0,6 C 3,9 C 3,2 km/h
10.12.2011 01:00 4,1 C 79 % 1013,1 hPa 0,0 l/m 0,1 km/h N 0,8 C 4,1 C 2,0 km/h
10.12.2011 02:00 4,0 C 79 % 1013,1 hPa 0,0 l/m 0,3 km/h N 0,7 C 4,0 C 3,2 km/h
10.12.2011 03:00 3,9 C 80 % 1013,2 hPa 0,0 l/m 0,4 km/h NW 0,7 C 3,9 C 4,8 km/h
10.12.2011 04:00 7,2 C 80 % 1013,5 hPa 0,0 l/m 5,2 km/h W 3,9 C 7,2 C 20,1 km/h
10.12.2011 05:00 7,6 C 74 % 1013,9 hPa 0,0 l/m 2,7 km/h N-NW 3,2 C 7,6 C 14,1 km/h
10.12.2011 06:00 6,8 C 73 % 1014,2 hPa 0,0 l/m 3,4 km/h N-NW 2,3 C 6,8 C 13,3 km/h
10.12.2011 07:00 6,3 C 72 % 1014,4 hPa 0,0 l/m 4,2 km/h W-SW 1,7 C 6,3 C 16,5 km/h
10.12.2011 08:00 6,2 C 72 % 1014,9 hPa 0,0 l/m 3,0 km/h W 1,5 C 6,2 C 10,5 km/h
10.12.2011 09:00 6,3 C 71 % 1015,1 hPa 0,0 l/m 2,5 km/h W-SW 1,4 C 6,3 C 8,9 km/h
10.12.2011 10:00 6,5 C 70 % 1015,3 hPa 0,0 l/m 2,1 km/h W-SW 1,3 C 6,5 C 10,1 km/h
10.12.2011 11:00 6,8 C 69 % 1015,0 hPa 0,0 l/m 1,4 km/h W 1,6 C 6,8 C 8,0 km/h
10.12.2011 12:00 7,5 C 68 % 1014,7 hPa 0,0 l/m 2,5 km/h SW 1,9 C 7,5 C 10,1 km/h
10.12.2011 13:00 7,2 C 72 % 1014,8 hPa 0,0 l/m 1,6 km/h W-SW 2,5 C 7,2 C 7,2 km/h
10.12.2011 14:00 6,8 C 74 % 1014,7 hPa 0,0 l/m 0,4 km/h N 2,6 C 6,8 C 4,0 km/h
10.12.2011 15:00 6,8 C 75 % 1014,6 hPa 0,0 l/m 0,4 km/h SW 2,7 C 6,8 C 4,0 km/h
10.12.2011 16:00 6,7 C 75 % 1014,8 hPa 0,0 l/m 1,4 km/h W-SW 2,5 C 6,7 C 6,4 km/h
10.12.2011 17:00 6,4 C 73 % 1015,5 hPa 0,0 l/m 3,0 km/h W-NW 2,0 C 6,4 C 10,9 km/h
10.12.2011 18:00 6,1 C 74 % 1016,2 hPa 0,0 l/m 4,8 km/h NW 1,9 C 6,1 C 17,7 km/h
10.12.2011 19:00 5,8 C 75 % 1016,5 hPa 0,0 l/m 3,9 km/h W 1,7 C 5,8 C 15,7 km/h
10.12.2011 20:00 5,4 C 78 % 1017,3 hPa 0,3 l/m 4,6 km/h W-NW 1,9 C 5,4 C 18,5 km/h
10.12.2011 21:00 4,9 C 80 % 1017,8 hPa 0,0 l/m 3,4 km/h SW 1,8 C 4,9 C 14,1 km/h
10.12.2011 22:00 5,0 C 80 % 1018,3 hPa 0,0 l/m 6,1 km/h W 1,8 C 4,9 C 19,3 km/h
10.12.2011 23:00 5,2 C 78 % 1018,6 hPa 0,0 l/m 4,4 km/h NW 1,5 C 5,2 C 15,7 km/h
11.12.2011 00:00 4,9 C 77 % 1019,0 hPa 0,0 l/m 2,9 km/h NW 1,2 C 4,9 C 12,5 km/h
11.12.2011 01:00 4,4 C 77 % 1019,4 hPa 0,0 l/m 1,3 km/h NW 0,8 C 4,4 C 8,1 km/h
11.12.2011 02:00 4,4 C 78 % 1019,8 hPa 0,0 l/m 2,5 km/h NW 0,9 C 4,4 C 8,0 km/h
11.12.2011 03:00 4,4 C 78 % 1019,8 hPa 0,0 l/m 1,7 km/h N-NW 0,8 C 4,4 C 8,4 km/h
11.12.2011 04:00 4,3 C 78 % 1019,9 hPa 0,0 l/m 0,8 km/h N 0,7 C 4,3 C 4,8 km/h
11.12.2011 05:00 3,8 C 79 % 1020,1 hPa 0,0 l/m 0,1 km/h N-NW 0,4 C 3,8 C 0,8 km/h
11.12.2011 06:00 3,9 C 81 % 1020,3 hPa 0,0 l/m 1,0 km/h N-NW 0,9 C 3,9 C 4,4 km/h
11.12.2011 07:00 3,8 C 81 % 1020,7 hPa 0,0 l/m 0,0 km/h N 0,8 C 3,8 C 0,0 km/h
11.12.2011 08:00 3,6 C 82 % 1021,5 hPa 0,0 l/m 0,1 km/h N 0,8 C 3,6 C 1,2 km/h
11.12.2011 09:00 3,9 C 83 % 1022,0 hPa 0,0 l/m 0,9 km/h S-SO 1,2 C 3,9 C 6,4 km/h
11.12.2011 10:00 4,4 C 82 % 1022,0 hPa 0,0 l/m 2,4 km/h S 1,6 C 4,4 C 10,9 km/h
11.12.2011 11:00 4,7 C 82 % 1021,7 hPa 0,0 l/m 1,9 km/h S-SO 1,9 C 4,7 C 8,5 km/h
11.12.2011 12:00 4,9 C 82 % 1021,2 hPa 0,0 l/m 0,1 km/h N 2,0 C 4,9 C 3,2 km/h
11.12.2011 13:00 4,9 C 80 % 1020,6 hPa 0,0 l/m 0,4 km/h N 1,7 C 4,9 C 4,0 km/h
11.12.2011 14:00 4,9 C 80 % 1020,2 hPa 0,0 l/m 0,4 km/h N 1,8 C 4,9 C 4,0 km/h
11.12.2011 15:00 4,9 C 81 % 1020,0 hPa 0,0 l/m 0,3 km/h N 2,0 C 4,9 C 2,8 km/h
11.12.2011 16:00 4,8 C 80 % 1020,0 hPa 0,0 l/m 0,3 km/h N 1,6 C 4,8 C 3,6 km/h
11.12.2011 17:00 4,1 C 79 % 1019,9 hPa 0,0 l/m 0,1 km/h N 0,7 C 4,1 C 0,8 km/h
11.12.2011 18:00 1,9 C 78 % 1019,9 hPa 0,0 l/m 0,0 km/h N -1,5 C 1,9 C 0,0 km/h
11.12.2011 19:00 0,0 C 80 % 1019,8 hPa 0,0 l/m 0,0 km/h N -3,0 C 0,0 C 0,0 km/h
11.12.2011 20:00 -1,0 C 82 % 1019,3 hPa 0,0 l/m 0,0 km/h N -3,7 C -1,0 C 0,4 km/h
11.12.2011 21:00 -1,7 C 84 % 1018,8 hPa 0,0 l/m 0,0 km/h N -4,0 C -1,7 C 0,4 km/h
11.12.2011 22:00 -2,1 C 85 % 1018,4 hPa 0,0 l/m 0,0 km/h N -4,3 C -2,1 C 0,0 km/h
11.12.2011 23:00 -2,5 C 85 % 1018,1 hPa 0,0 l/m 0,0 km/h N -4,7 C -2,5 C 0,0 km/h
Min-Datum _ 11.12.11 06.12.11 05.12.11 - 05.12.11 - 08.12.11 08.12.11 05.12.11
_ Min-Zeit 23:45 04:45 05:00 - 00:00 - 23:15 04:45 03:15
Minimum _ -2,6 C 55 % 994,2 hPa - 0,0 km/h - -4,8 C -3,7 C 0,0 km/h
Max-Datum _ 05.12.11 05.12.11 08.12.11 06.12.11 05.12.11 - 05.12.11 10.12.11 08.12.11
_ Max-Zeit 08:30 00:15 17:00 22:15 11:15 - 08:00 04:45 12:00
Maximum _ 9,9 C 85 % 1024,0 hPa 1,8 l/m 23,3 km/h
W
- 6,7 C 7,8 C 59,5 km/h
NO
Durchschnitt _ 4,5 C 75 % 1013,2 hPa #6,8 l/m 4,1 km/h W-NW 0,3 C 3,5 C 13,0 km/h